Time,TemperatureF,DewpointF,PressureIn,WindDirection,WindDirectionDegrees,WindSpeedMPH,WindSpeedGustMPH,Humidity,HourlyPrecipIn,Conditions,Clouds,dailyrainin,SoftwareType,DateUTC
2013-02-25 00:00:00,18.5,16.6,30.18,West,274,0.0,0.0,92,0.00,,---,0.00,VWS V14.01,2013-02-25 05:00:00,
2013-02-25 00:05:00,18.4,16.7,30.18,West,274,0.0,0.0,93,0.00,,---,0.00,VWS V14.01,2013-02-25 05:05:00,
2013-02-25 00:10:00,18.3,16.6,30.18,West,274,0.0,0.0,93,0.00,,---,0.00,VWS V14.01,2013-02-25 05:10:00,
2013-02-25 00:15:00,18.0,16.3,30.18,West,274,0.0,0.0,93,0.00,,---,0.00,VWS V14.01,2013-02-25 05:15:00,
2013-02-25 00:20:00,17.9,16.0,30.18,West,274,0.0,0.0,92,0.00,,---,0.00,VWS V14.01,2013-02-25 05:20:00,
2013-02-25 00:25:00,17.9,16.2,30.18,West,274,0.0,0.0,93,0.00,,---,0.00,VWS V14.01,2013-02-25 05:25:00,
2013-02-25 00:30:00,17.9,16.2,30.18,West,274,0.0,0.0,93,0.00,,---,0.00,VWS V14.01,2013-02-25 05:30:00,
2013-02-25 00:35:00,17.7,16.0,30.18,West,274,0.0,0.0,93,0.00,,---,0.00,VWS V14.01,2013-02-25 05:35:00,
2013-02-25 00:40:00,17.6,15.9,30.18,West,274,0.0,0.0,93,0.00,,---,0.00,VWS V14.01,2013-02-25 05:40:00,
2013-02-25 00:45:00,17.6,15.9,30.18,West,274,0.0,0.0,93,0.00,,---,0.00,VWS V14.01,2013-02-25 05:45:00,
2013-02-25 00:50:00,17.7,16.0,30.18,West,274,0.0,0.0,93,0.00,,---,0.00,VWS V14.01,2013-02-25 05:50:00,
2013-02-25 00:55:00,17.6,15.9,30.18,West,274,0.0,0.0,93,0.00,,---,0.00,VWS V14.01,2013-02-25 05:55:00,
2013-02-25 01:00:00,17.5,15.8,30.18,West,274,0.0,0.0,93,0.00,,---,0.00,VWS V14.01,2013-02-25 06:00:00,
2013-02-25 01:05:00,17.3,15.6,30.18,West,274,0.0,0.0,93,0.00,,---,0.00,VWS V14.01,2013-02-25 06:05:00,
2013-02-25 01:10:00,17.2,15.5,30.18,West,274,0.0,0.0,93,0.00,,---,0.00,VWS V14.01,2013-02-25 06:10:00,
2013-02-25 01:15:00,16.9,15.2,30.19,West,274,1.0,2.0,93,0.00,,---,0.00,VWS V14.01,2013-02-25 06:15:00,
2013-02-25 01:20:00,16.8,15.1,30.19,West,274,1.0,2.0,93,0.00,,---,0.00,VWS V14.01,2013-02-25 06:20:00,
2013-02-25 01:25:00,16.6,14.9,30.19,West,274,0.0,0.0,93,0.00,,---,0.00,VWS V14.01,2013-02-25 06:25:00,
2013-02-25 01:30:00,16.5,14.8,30.19,West,274,0.0,0.0,93,0.00,,---,0.00,VWS V14.01,2013-02-25 06:30:00,
2013-02-25 01:35:00,16.4,14.7,30.19,West,274,0.0,0.0,93,0.00,,---,0.00,VWS V14.01,2013-02-25 06:35:00,
2013-02-25 01:40:00,16.3,14.6,30.19,West,274,0.0,0.0,93,0.00,,---,0.00,VWS V14.01,2013-02-25 06:40:00,
2013-02-25 01:45:00,16.2,14.5,30.19,West,274,0.0,0.0,93,0.00,,---,0.00,VWS V14.01,2013-02-25 06:45:00,
2013-02-25 01:50:00,16.1,14.4,30.19,West,274,0.0,0.0,93,0.00,,---,0.00,VWS V14.01,2013-02-25 06:50:00,
2013-02-25 01:55:00,16.1,14.4,30.19,West,274,0.0,0.0,93,0.00,,---,0.00,VWS V14.01,2013-02-25 06:55:00,
2013-02-25 02:00:00,16.1,14.4,30.20,West,274,0.0,0.0,93,0.00,,---,0.00,VWS V14.01,2013-02-25 07:00:00,
2013-02-25 02:05:00,16.0,14.3,30.20,West,274,0.0,0.0,93,0.00,,---,0.00,VWS V14.01,2013-02-25 07:05:00,
2013-02-25 02:10:00,15.9,14.2,30.20,West,274,0.0,0.0,93,0.00,,---,0.00,VWS V14.01,2013-02-25 07:10:00,
2013-02-25 02:15:00,15.8,14.1,30.19,West,274,0.0,0.0,93,0.00,,---,0.00,VWS V14.01,2013-02-25 07:15:00,
2013-02-25 02:20:00,15.6,13.7,30.20,West,274,0.0,0.0,92,0.00,,---,0.00,VWS V14.01,2013-02-25 07:20:00,
2013-02-25 02:25:00,15.3,13.4,30.20,West,274,2.0,2.0,92,0.00,,---,0.00,VWS V14.01,2013-02-25 07:25:00,
2013-02-25 02:30:00,14.8,12.9,30.20,West,274,0.0,0.0,92,0.00,,---,0.00,VWS V14.01,2013-02-25 07:30:00,
2013-02-25 02:35:00,14.6,12.7,30.20,West,274,0.0,0.0,92,0.00,,---,0.00,VWS V14.01,2013-02-25 07:35:00,
2013-02-25 02:40:00,14.6,12.7,30.19,West,274,0.0,0.0,92,0.00,,---,0.00,VWS V14.01,2013-02-25 07:40:00,
2013-02-25 02:45:00,14.8,13.1,30.19,West,274,0.0,0.0,93,0.00,,---,0.00,VWS V14.01,2013-02-25 07:45:00,
2013-02-25 02:50:00,14.9,13.2,30.19,West,274,0.0,0.0,93,0.00,,---,0.00,VWS V14.01,2013-02-25 07:50:00,
2013-02-25 02:55:00,15.0,13.3,30.19,West,274,0.0,0.0,93,0.00,,---,0.00,VWS V14.01,2013-02-25 07:55:00,
2013-02-25 03:00:00,14.9,13.0,30.19,West,274,0.0,0.0,92,0.00,,---,0.00,VWS V14.01,2013-02-25 08:00:00,
2013-02-25 03:05:00,14.4,12.5,30.18,West,274,0.0,0.0,92,0.00,,---,0.00,VWS V14.01,2013-02-25 08:05:00,
2013-02-25 03:10:00,14.1,12.2,30.18,West,274,0.0,0.0,92,0.00,,---,0.00,VWS V14.01,2013-02-25 08:10:00,
2013-02-25 03:15:00,14.0,12.1,30.18,West,274,0.0,0.0,92,0.00,,---,0.00,VWS V14.01,2013-02-25 08:15:00,
2013-02-25 03:20:00,13.9,12.0,30.18,West,274,0.0,0.0,92,0.00,,---,0.00,VWS V14.01,2013-02-25 08:20:00,
2013-02-25 03:25:00,13.7,11.6,30.18,West,274,0.0,0.0,91,0.00,,---,0.00,VWS V14.01,2013-02-25 08:25:00,
2013-02-25 03:30:00,13.5,11.4,30.19,West,274,0.0,0.0,91,0.00,,---,0.00,VWS V14.01,2013-02-25 08:30:00,
2013-02-25 03:35:00,13.4,11.5,30.19,West,274,0.0,0.0,92,0.00,,---,0.00,VWS V14.01,2013-02-25 08:35:00,
2013-02-25 03:40:00,13.4,11.5,30.18,West,274,0.0,0.0,92,0.00,,---,0.00,VWS V14.01,2013-02-25 08:40:00,
2013-02-25 03:45:00,13.4,11.5,30.18,West,274,0.0,0.0,92,0.00,,---,0.00,VWS V14.01,2013-02-25 08:45:00,
2013-02-25 03:50:00,13.5,11.6,30.18,West,274,0.0,0.0,92,0.00,,---,0.00,VWS V14.01,2013-02-25 08:50:00,
2013-02-25 03:55:00,13.5,11.6,30.18,West,274,0.0,0.0,92,0.00,,---,0.00,VWS V14.01,2013-02-25 08:55:00,
2013-02-25 04:00:00,13.5,11.6,30.19,West,274,0.0,0.0,92,0.00,,---,0.00,VWS V14.01,2013-02-25 09:00:00,
2013-02-25 04:05:00,13.5,11.6,30.19,West,274,0.0,0.0,92,0.00,,---,0.00,VWS V14.01,2013-02-25 09:05:00,
2013-02-25 04:10:00,13.6,11.7,30.19,West,274,0.0,0.0,92,0.00,,---,0.00,VWS V14.01,2013-02-25 09:10:00,
2013-02-25 04:15:00,13.7,12.1,30.19,West,274,0.0,0.0,93,0.00,,---,0.00,VWS V14.01,2013-02-25 09:15:00,
2013-02-25 04:20:00,13.7,11.8,30.19,West,274,0.0,0.0,92,0.00,,---,0.00,VWS V14.01,2013-02-25 09:20:00,
2013-02-25 04:25:00,13.6,11.7,30.19,West,274,0.0,0.0,92,0.00,,---,0.00,VWS V14.01,2013-02-25 09:25:00,
2013-02-25 04:30:00,13.5,11.6,30.19,West,274,0.0,0.0,92,0.00,,---,0.00,VWS V14.01,2013-02-25 09:30:00,
2013-02-25 04:35:00,13.3,11.4,30.19,West,274,0.0,0.0,92,0.00,,---,0.00,VWS V14.01,2013-02-25 09:35:00,
2013-02-25 04:40:00,13.2,11.3,30.19,West,274,0.0,0.0,92,0.00,,---,0.00,VWS V14.01,2013-02-25 09:40:00,
2013-02-25 04:45:00,13.1,11.2,30.19,West,274,0.0,0.0,92,0.00,,---,0.00,VWS V14.01,2013-02-25 09:45:00,
2013-02-25 04:50:00,13.0,11.1,30.19,West,274,0.0,0.0,92,0.00,,---,0.00,VWS V14.01,2013-02-25 09:50:00,
2013-02-25 04:55:00,13.0,11.1,30.19,West,274,0.0,0.0,92,0.00,,---,0.00,VWS V14.01,2013-02-25 09:55:00,
2013-02-25 05:00:00,13.0,11.1,30.19,West,274,0.0,0.0,92,0.00,,---,0.00,VWS V14.01,2013-02-25 10:00:00,
2013-02-25 05:05:00,13.0,11.1,30.20,West,274,0.0,0.0,92,0.00,,---,0.00,VWS V14.01,2013-02-25 10:05:00,
2013-02-25 05:10:00,13.0,11.1,30.20,West,274,0.0,0.0,92,0.00,,---,0.00,VWS V14.01,2013-02-25 10:10:00,
2013-02-25 05:15:00,12.9,11.0,30.20,West,274,0.0,0.0,92,0.00,,---,0.00,VWS V14.01,2013-02-25 10:15:00,
2013-02-25 05:20:00,12.9,11.0,30.20,West,274,0.0,0.0,92,0.00,,---,0.00,VWS V14.01,2013-02-25 10:20:00,
2013-02-25 05:25:00,12.8,10.9,30.20,West,274,0.0,0.0,92,0.00,,---,0.00,VWS V14.01,2013-02-25 10:25:00,
2013-02-25 05:30:00,12.7,10.8,30.20,West,274,0.0,0.0,92,0.00,,---,0.00,VWS V14.01,2013-02-25 10:30:00,
2013-02-25 05:35:00,12.6,10.5,30.20,West,274,0.0,0.0,91,0.00,,---,0.00,VWS V14.01,2013-02-25 10:35:00,
2013-02-25 05:40:00,12.5,10.4,30.20,West,274,0.0,0.0,91,0.00,,---,0.00,VWS V14.01,2013-02-25 10:40:00,
2013-02-25 05:46:00,12.3,10.2,30.21,West,274,0.0,0.0,91,0.00,,---,0.00,VWS V14.01,2013-02-25 10:46:00,
2013-02-25 05:51:00,12.2,10.1,30.20,West,274,0.0,0.0,91,0.00,,---,0.00,VWS V14.01,2013-02-25 10:51:00,
2013-02-25 05:56:00,12.1,10.0,30.21,West,274,0.0,0.0,91,0.00,,---,0.00,VWS V14.01,2013-02-25 10:56:00,
2013-02-25 06:01:00,12.1,10.0,30.21,West,274,0.0,0.0,91,0.00,,---,0.00,VWS V14.01,2013-02-25 11:01:00,
2013-02-25 06:06:00,11.9,9.8,30.21,West,274,0.0,0.0,91,0.00,,---,0.00,VWS V14.01,2013-02-25 11:06:00,
2013-02-25 06:11:00,11.8,9.7,30.21,West,274,0.0,0.0,91,0.00,,---,0.00,VWS V14.01,2013-02-25 11:11:00,
2013-02-25 06:16:00,11.8,9.7,30.21,West,274,0.0,0.0,91,0.00,,---,0.00,VWS V14.01,2013-02-25 11:16:00,
2013-02-25 06:21:00,11.8,9.7,30.21,West,274,0.0,0.0,91,0.00,,---,0.00,VWS V14.01,2013-02-25 11:21:00,
2013-02-25 06:26:00,11.9,10.0,30.21,West,274,0.0,0.0,92,0.00,,---,0.00,VWS V14.01,2013-02-25 11:26:00,
2013-02-25 06:31:00,11.9,10.0,30.21,West,274,0.0,0.0,92,0.00,,---,0.00,VWS V14.01,2013-02-25 11:31:00,
2013-02-25 06:36:00,11.9,10.0,30.21,West,274,0.0,0.0,92,0.00,,---,0.00,VWS V14.01,2013-02-25 11:36:00,
2013-02-25 06:41:00,11.9,10.0,30.21,West,274,0.0,0.0,92,0.00,,---,0.00,VWS V14.01,2013-02-25 11:41:00,
2013-02-25 06:46:00,11.9,10.0,30.21,West,274,0.0,0.0,92,0.00,,---,0.00,VWS V14.01,2013-02-25 11:46:00,
2013-02-25 06:51:00,11.8,9.9,30.22,West,274,0.0,0.0,92,0.00,,---,0.00,VWS V14.01,2013-02-25 11:51:00,
2013-02-25 06:56:00,11.6,9.5,30.22,West,274,0.0,0.0,91,0.00,,---,0.00,VWS V14.01,2013-02-25 11:56:00,
2013-02-25 07:01:00,11.4,9.3,30.22,West,274,0.0,0.0,91,0.00,,---,0.00,VWS V14.01,2013-02-25 12:01:00,
2013-02-25 07:06:00,11.3,9.2,30.23,West,274,0.0,0.0,91,0.00,,---,0.00,VWS V14.01,2013-02-25 12:06:00,
2013-02-25 07:11:00,11.3,9.4,30.23,West,274,0.0,0.0,92,0.00,,---,0.00,VWS V14.01,2013-02-25 12:11:00,
2013-02-25 07:16:00,11.4,9.5,30.22,West,274,0.0,0.0,92,0.00,,---,0.00,VWS V14.01,2013-02-25 12:16:00,
2013-02-25 07:21:00,11.5,9.6,30.22,West,274,0.0,0.0,92,0.00,,---,0.00,VWS V14.01,2013-02-25 12:21:00,
2013-02-25 07:26:00,11.5,9.6,30.22,West,274,0.0,0.0,92,0.00,,---,0.00,VWS V14.01,2013-02-25 12:26:00,
2013-02-25 07:31:00,11.5,9.6,30.22,West,274,0.0,0.0,92,0.00,,---,0.00,VWS V14.01,2013-02-25 12:31:00,
2013-02-25 07:36:00,11.5,9.6,30.23,West,274,0.0,0.0,92,0.00,,---,0.00,VWS V14.01,2013-02-25 12:36:00,
2013-02-25 07:41:00,11.5,9.6,30.23,West,274,0.0,0.0,92,0.00,,---,0.00,VWS V14.01,2013-02-25 12:41:00,
2013-02-25 07:46:00,11.5,9.6,30.23,West,274,0.0,0.0,92,0.00,,---,0.00,VWS V14.01,2013-02-25 12:46:00,
2013-02-25 07:51:00,11.6,9.7,30.24,West,274,0.0,0.0,92,0.00,,---,0.00,VWS V14.01,2013-02-25 12:51:00,
2013-02-25 07:56:00,11.6,9.7,30.24,West,274,0.0,0.0,92,0.00,,---,0.00,VWS V14.01,2013-02-25 12:56:00,
2013-02-25 08:01:00,11.8,9.9,30.24,West,274,0.0,0.0,92,0.00,,---,0.00,VWS V14.01,2013-02-25 13:01:00,
2013-02-25 08:06:00,11.9,10.0,30.24,West,274,0.0,0.0,92,0.00,,---,0.00,VWS V14.01,2013-02-25 13:06:00,
2013-02-25 08:11:00,12.2,10.3,30.24,West,274,0.0,0.0,92,0.00,,---,0.00,VWS V14.01,2013-02-25 13:11:00,
2013-02-25 08:16:00,12.7,11.1,30.24,West,274,0.0,0.0,93,0.00,,---,0.00,VWS V14.01,2013-02-25 13:16:00,
2013-02-25 08:21:00,13.5,12.1,30.25,West,274,0.0,0.0,94,0.00,,---,0.00,VWS V14.01,2013-02-25 13:21:00,
2013-02-25 08:26:00,14.2,12.8,30.25,West,274,0.0,0.0,94,0.00,,---,0.00,VWS V14.01,2013-02-25 13:26:00,
2013-02-25 08:31:00,14.6,13.2,30.25,West,274,0.0,0.0,94,0.00,,---,0.00,VWS V14.01,2013-02-25 13:31:00,
2013-02-25 08:36:00,15.0,13.6,30.25,West,274,0.0,0.0,94,0.00,,---,0.00,VWS V14.01,2013-02-25 13:36:00,
2013-02-25 08:41:00,15.3,13.9,30.25,West,274,0.0,0.0,94,0.00,,---,0.00,VWS V14.01,2013-02-25 13:41:00,
2013-02-25 08:46:00,15.6,14.2,30.25,West,274,0.0,0.0,94,0.00,,---,0.00,VWS V14.01,2013-02-25 13:46:00,
2013-02-25 08:51:00,16.1,14.7,30.25,West,274,0.0,0.0,94,0.00,,---,0.00,VWS V14.01,2013-02-25 13:51:00,
2013-02-25 08:56:00,16.6,15.2,30.25,West,274,0.0,0.0,94,0.00,,---,0.00,VWS V14.01,2013-02-25 13:56:00,
2013-02-25 09:01:00,17.1,15.7,30.24,West,274,0.0,0.0,94,0.00,,---,0.00,VWS V14.01,2013-02-25 14:01:00,
2013-02-25 09:06:00,17.6,16.2,30.24,West,274,0.0,0.0,94,0.00,,---,0.00,VWS V14.01,2013-02-25 14:06:00,
2013-02-25 09:11:00,18.2,16.8,30.23,West,274,0.0,0.0,94,0.00,,---,0.00,VWS V14.01,2013-02-25 14:11:00,
2013-02-25 09:16:00,18.8,17.4,30.23,West,274,0.0,0.0,94,0.00,,---,0.00,VWS V14.01,2013-02-25 14:16:00,
2013-02-25 09:21:00,19.3,17.9,30.23,West,274,0.0,0.0,94,0.00,,---,0.00,VWS V14.01,2013-02-25 14:21:00,
2013-02-25 09:26:00,19.8,18.4,30.23,West,274,0.0,0.0,94,0.00,,---,0.00,VWS V14.01,2013-02-25 14:26:00,
2013-02-25 09:31:00,20.3,18.9,30.23,West,274,0.0,0.0,94,0.00,,---,0.00,VWS V14.01,2013-02-25 14:31:00,
2013-02-25 09:36:00,21.2,20.0,30.23,West,274,0.0,0.0,95,0.00,,---,0.00,VWS V14.01,2013-02-25 14:36:00,
2013-02-25 09:41:00,21.7,20.5,30.23,West,274,0.0,0.0,95,0.00,,---,0.00,VWS V14.01,2013-02-25 14:41:00,
2013-02-25 09:46:00,22.1,20.6,30.23,West,274,0.0,0.0,94,0.00,,---,0.00,VWS V14.01,2013-02-25 14:46:00,
2013-02-25 09:52:00,22.3,20.8,30.23,West,274,0.0,0.0,94,0.00,,---,0.00,VWS V14.01,2013-02-25 14:52:00,
2013-02-25 09:57:00,22.5,20.8,30.23,West,274,0.0,0.0,93,0.00,,---,0.00,VWS V14.01,2013-02-25 14:57:00,
2013-02-25 10:02:00,22.5,20.8,30.24,West,274,3.0,3.0,93,0.00,,---,0.00,VWS V14.01,2013-02-25 15:02:00,
2013-02-25 10:07:00,22.7,20.7,30.23,West,274,0.0,2.0,92,0.00,,---,0.00,VWS V14.01,2013-02-25 15:07:00,
2013-02-25 10:12:00,23.1,21.1,30.23,West,274,0.0,0.0,92,0.00,,---,0.00,VWS V14.01,2013-02-25 15:12:00,
2013-02-25 10:17:00,23.6,21.6,30.23,West,274,0.0,0.0,92,0.00,,---,0.00,VWS V14.01,2013-02-25 15:17:00,
2013-02-25 10:22:00,24.1,22.1,30.22,West,274,0.0,0.0,92,0.00,,---,0.00,VWS V14.01,2013-02-25 15:22:00,
2013-02-25 10:27:00,25.2,23.5,30.22,West,274,1.0,2.0,93,0.00,,---,0.00,VWS V14.01,2013-02-25 15:27:00,
2013-02-25 10:31:00,27.0,25.5,30.22,SSE,147,5.0,7.0,94,0.00,,---,0.00,VWS V14.01,2013-02-25 15:31:00,
2013-02-25 10:37:00,28.6,27.4,30.22,SSE,159,5.0,6.0,95,0.00,,---,0.00,VWS V14.01,2013-02-25 15:37:00,
2013-02-25 10:41:00,29.8,28.3,30.22,SSE,159,4.0,5.0,94,0.00,,---,0.00,VWS V14.01,2013-02-25 15:41:00,
2013-02-25 10:46:00,30.8,29.0,30.22,South,181,4.0,5.0,93,0.00,,---,0.00,VWS V14.01,2013-02-25 15:46:00,
2013-02-25 10:51:00,31.7,29.1,30.22,SSE,159,4.0,6.0,90,0.00,,---,0.00,VWS V14.01,2013-02-25 15:51:00,
2013-02-25 10:56:00,32.4,29.2,30.22,SSE,159,5.0,8.0,88,0.00,,---,0.00,VWS V14.01,2013-02-25 15:56:00,
2013-02-25 11:01:00,33.1,29.4,30.22,SSE,158,5.0,7.0,86,0.00,,---,0.00,VWS V14.01,2013-02-25 16:01:00,
2013-02-25 11:06:00,33.6,29.3,30.22,SE,143,7.0,7.0,84,0.00,,---,0.00,VWS V14.01,2013-02-25 16:06:00,
2013-02-25 11:11:00,34.2,29.6,30.23,SSE,167,4.0,5.0,83,0.00,,---,0.00,VWS V14.01,2013-02-25 16:11:00,
2013-02-25 11:16:00,34.8,29.6,30.23,SSE,162,4.0,7.0,81,0.00,,---,0.00,VWS V14.01,2013-02-25 16:16:00,
2013-02-25 11:21:00,35.0,29.2,30.23,SSE,153,5.0,8.0,79,0.00,,---,0.00,VWS V14.01,2013-02-25 16:21:00,
2013-02-25 11:26:00,35.6,29.4,30.23,South,178,8.0,9.0,78,0.00,,---,0.00,VWS V14.01,2013-02-25 16:26:00,
2013-02-25 11:31:00,36.0,29.5,30.23,South,171,6.0,8.0,77,0.00,,---,0.00,VWS V14.01,2013-02-25 16:31:00,
2013-02-25 11:36:00,36.1,29.3,30.23,South,190,6.0,9.0,76,0.00,,---,0.00,VWS V14.01,2013-02-25 16:36:00,
2013-02-25 11:41:00,36.3,29.5,30.23,South,171,6.0,8.0,76,0.00,,---,0.00,VWS V14.01,2013-02-25 16:41:00,
2013-02-25 11:46:00,36.5,29.3,30.23,SSE,164,6.0,8.0,75,0.00,,---,0.00,VWS V14.01,2013-02-25 16:46:00,
2013-02-25 11:52:00,36.8,29.3,30.23,SSE,167,5.0,6.0,74,0.00,,---,0.00,VWS V14.01,2013-02-25 16:52:00,
2013-02-25 11:57:00,36.9,29.1,30.23,SSE,153,6.0,7.0,73,0.00,,---,0.00,VWS V14.01,2013-02-25 16:57:00,
2013-02-25 12:02:00,37.1,29.3,30.23,SSE,155,4.0,5.0,73,0.00,,---,0.00,VWS V14.01,2013-02-25 17:02:00,
2013-02-25 12:07:00,37.3,29.1,30.23,SSE,157,2.0,6.0,72,0.00,,---,0.00,VWS V14.01,2013-02-25 17:07:00,
2013-02-25 12:12:00,37.4,28.9,30.22,SSE,155,5.0,6.0,71,0.00,,---,0.00,VWS V14.01,2013-02-25 17:12:00,
2013-02-25 12:17:00,37.2,28.7,30.22,SSE,154,2.0,6.0,71,0.00,,---,0.00,VWS V14.01,2013-02-25 17:17:00,
2013-02-25 12:22:00,37.3,28.8,30.22,SE,135,4.0,6.0,71,0.00,,---,0.00,VWS V14.01,2013-02-25 17:22:00,
2013-02-25 12:27:00,37.7,28.8,30.21,SSE,150,4.0,7.0,70,0.00,,---,0.00,VWS V14.01,2013-02-25 17:27:00,
2013-02-25 12:32:00,38.1,28.8,30.20,SE,138,6.0,7.0,69,0.00,,---,0.00,VWS V14.01,2013-02-25 17:32:00,
2013-02-25 12:37:00,38.2,27.9,30.20,SSE,155,5.0,7.0,66,0.00,,---,0.00,VWS V14.01,2013-02-25 17:37:00,
2013-02-25 12:42:00,38.3,27.2,30.20,SSE,151,6.0,7.0,64,0.00,,---,0.00,VWS V14.01,2013-02-25 17:42:00,
2013-02-25 12:47:00,38.5,27.0,30.20,SSE,161,6.0,8.0,63,0.00,,---,0.00,VWS V14.01,2013-02-25 17:47:00,
2013-02-25 12:52:00,38.8,26.9,30.20,SSE,150,8.0,8.0,62,0.00,,---,0.00,VWS V14.01,2013-02-25 17:52:00,
2013-02-25 12:57:00,38.9,26.6,30.19,SSE,150,5.0,7.0,61,0.00,,---,0.00,VWS V14.01,2013-02-25 17:57:00,
2013-02-25 13:02:00,39.1,26.4,30.19,SSE,150,6.0,8.0,60,0.00,,---,0.00,VWS V14.01,2013-02-25 18:02:00,
2013-02-25 13:07:00,39.2,26.1,30.18,SSE,150,4.0,7.0,59,0.00,,---,0.00,VWS V14.01,2013-02-25 18:07:00,
2013-02-25 13:12:00,39.2,26.5,30.18,SSE,150,5.0,6.0,60,0.00,,---,0.00,VWS V14.01,2013-02-25 18:12:00,
2013-02-25 13:17:00,39.4,25.9,30.18,SSE,150,4.0,8.0,58,0.00,,---,0.00,VWS V14.01,2013-02-25 18:17:00,
2013-02-25 13:22:00,39.7,26.1,30.18,SSE,150,2.0,6.0,58,0.00,,---,0.00,VWS V14.01,2013-02-25 18:22:00,
2013-02-25 13:27:00,39.8,25.8,30.18,SSE,150,5.0,5.0,57,0.00,,---,0.00,VWS V14.01,2013-02-25 18:27:00,
2013-02-25 13:32:00,40.3,26.3,30.18,SSE,150,4.0,7.0,57,0.00,,---,0.00,VWS V14.01,2013-02-25 18:32:00,
2013-02-25 13:37:00,40.9,26.0,30.18,SSE,150,4.0,6.0,55,0.00,,---,0.00,VWS V14.01,2013-02-25 18:37:00,
2013-02-25 13:42:00,41.5,27.0,30.18,SSE,150,5.0,6.0,56,0.00,,---,0.00,VWS V14.01,2013-02-25 18:42:00,
2013-02-25 13:47:00,42.0,27.0,30.18,SSE,165,4.0,7.0,55,0.00,,---,0.00,VWS V14.01,2013-02-25 18:47:00,
2013-02-25 13:52:00,42.1,27.1,30.18,SSE,167,5.0,7.0,55,0.00,,---,0.00,VWS V14.01,2013-02-25 18:52:00,
2013-02-25 13:57:00,42.1,26.7,30.18,SSE,158,4.0,8.0,54,0.00,,---,0.00,VWS V14.01,2013-02-25 18:57:00,
2013-02-25 14:02:00,42.1,27.1,30.18,South,190,3.0,6.0,55,0.00,,---,0.00,VWS V14.01,2013-02-25 19:02:00,
2013-02-25 14:07:00,42.2,27.2,30.18,South,188,6.0,7.0,55,0.00,,---,0.00,VWS V14.01,2013-02-25 19:07:00,
2013-02-25 14:12:00,42.4,27.0,30.18,South,178,5.0,8.0,54,0.00,,---,0.00,VWS V14.01,2013-02-25 19:12:00,
2013-02-25 14:18:00,42.4,27.0,30.18,SSW,196,4.0,7.0,54,0.00,,---,0.00,VWS V14.01,2013-02-25 19:18:00,
2013-02-25 14:23:00,42.4,27.0,30.18,South,180,2.0,7.0,54,0.00,,---,0.00,VWS V14.01,2013-02-25 19:23:00,
2013-02-25 14:28:00,42.3,26.4,30.18,South,180,3.0,6.0,53,0.00,,---,0.00,VWS V14.01,2013-02-25 19:28:00,
2013-02-25 14:33:00,42.3,26.9,30.18,South,180,5.0,6.0,54,0.00,,---,0.00,VWS V14.01,2013-02-25 19:33:00,
2013-02-25 14:38:00,42.3,26.4,30.17,SSE,157,7.0,7.0,53,0.00,,---,0.00,VWS V14.01,2013-02-25 19:38:00,
2013-02-25 14:43:00,42.2,26.3,30.18,South,189,2.0,6.0,53,0.00,,---,0.00,VWS V14.01,2013-02-25 19:43:00,
2013-02-25 14:48:00,42.5,26.1,30.18,South,176,6.0,7.0,52,0.00,,---,0.00,VWS V14.01,2013-02-25 19:48:00,
2013-02-25 14:53:00,42.6,26.2,30.18,South,176,5.0,6.0,52,0.00,,---,0.00,VWS V14.01,2013-02-25 19:53:00,
2013-02-25 14:57:00,42.8,25.9,30.17,South,176,4.0,6.0,51,0.00,,---,0.00,VWS V14.01,2013-02-25 19:57:00,
2013-02-25 15:02:00,42.9,25.6,30.17,South,176,2.0,7.0,50,0.00,,---,0.00,VWS V14.01,2013-02-25 20:02:00,
2013-02-25 15:07:00,43.2,25.8,30.17,South,176,1.0,6.0,50,0.00,,---,0.00,VWS V14.01,2013-02-25 20:07:00,
2013-02-25 15:12:00,43.4,25.5,30.17,South,176,5.0,5.0,49,0.00,,---,0.00,VWS V14.01,2013-02-25 20:12:00,
2013-02-25 15:17:00,43.5,25.1,30.16,South,176,2.0,5.0,48,0.00,,---,0.00,VWS V14.01,2013-02-25 20:17:00,
2013-02-25 15:22:00,43.5,25.6,30.16,South,176,1.0,4.0,49,0.00,,---,0.00,VWS V14.01,2013-02-25 20:22:00,
2013-02-25 15:27:00,43.9,25.0,30.16,South,176,5.0,5.0,47,0.00,,---,0.00,VWS V14.01,2013-02-25 20:27:00,
2013-02-25 15:32:00,44.2,25.8,30.16,South,176,2.0,4.0,48,0.00,,---,0.00,VWS V14.01,2013-02-25 20:32:00,
2013-02-25 15:37:00,44.3,25.4,30.16,South,176,1.0,6.0,47,0.00,,---,0.00,VWS V14.01,2013-02-25 20:37:00,
2013-02-25 15:42:00,44.5,25.5,30.15,South,176,2.0,5.0,47,0.00,,---,0.00,VWS V14.01,2013-02-25 20:42:00,
2013-02-25 15:47:00,44.7,25.2,30.15,South,176,0.0,2.0,46,0.00,,---,0.00,VWS V14.01,2013-02-25 20:47:00,
2013-02-25 15:52:00,45.1,25.6,30.15,South,176,0.0,0.0,46,0.00,,---,0.00,VWS V14.01,2013-02-25 20:52:00,
2013-02-25 15:57:00,45.0,25.0,30.14,South,176,0.0,0.0,45,0.00,,---,0.00,VWS V14.01,2013-02-25 20:57:00,
2013-02-25 16:02:00,44.2,26.3,30.14,NE,40,3.0,5.0,49,0.00,,---,0.00,VWS V14.01,2013-02-25 21:02:00,
2013-02-25 16:07:00,42.3,25.5,30.14,NE,40,2.0,5.0,51,0.00,,---,0.00,VWS V14.01,2013-02-25 21:07:00,
2013-02-25 16:12:00,41.5,25.2,30.14,NE,40,2.0,3.0,52,0.00,,---,0.00,VWS V14.01,2013-02-25 21:12:00,
2013-02-25 16:17:00,41.2,25.4,30.14,NE,40,2.0,3.0,53,0.00,,---,0.00,VWS V14.01,2013-02-25 21:17:00,
2013-02-25 16:23:00,41.1,25.3,30.14,NE,40,3.0,3.0,53,0.00,,---,0.00,VWS V14.01,2013-02-25 21:23:00,
2013-02-25 16:28:00,41.1,26.2,30.14,NE,40,1.0,3.0,55,0.00,,---,0.00,VWS V14.01,2013-02-25 21:28:00,
2013-02-25 16:33:00,41.3,26.4,30.14,NE,40,1.0,4.0,55,0.00,,---,0.00,VWS V14.01,2013-02-25 21:33:00,
2013-02-25 16:38:00,41.4,26.9,30.13,NE,40,0.0,1.0,56,0.00,,---,0.00,VWS V14.01,2013-02-25 21:38:00,
2013-02-25 16:43:00,41.5,27.0,30.14,NE,40,0.0,4.0,56,0.00,,---,0.00,VWS V14.01,2013-02-25 21:43:00,
2013-02-25 16:48:00,41.4,26.9,30.13,NE,40,4.0,5.0,56,0.00,,---,0.00,VWS V14.01,2013-02-25 21:48:00,
2013-02-25 16:53:00,40.9,27.3,30.13,NE,39,4.0,5.0,58,0.00,,---,0.00,VWS V14.01,2013-02-25 21:53:00,
2013-02-25 16:58:00,40.6,26.6,30.14,NE,39,2.0,4.0,57,0.00,,---,0.00,VWS V14.01,2013-02-25 21:58:00,
2013-02-25 17:03:00,40.6,27.0,30.14,NE,39,0.0,3.0,58,0.00,,---,0.00,VWS V14.01,2013-02-25 22:03:00,
2013-02-25 17:08:00,40.7,27.5,30.14,NE,39,0.0,0.0,59,0.00,,---,0.00,VWS V14.01,2013-02-25 22:08:00,
2013-02-25 17:13:00,40.8,28.0,30.14,NE,39,3.0,3.0,60,0.00,,---,0.00,VWS V14.01,2013-02-25 22:13:00,
2013-02-25 17:18:00,40.5,28.1,30.13,NE,39,4.0,4.0,61,0.00,,---,0.00,VWS V14.01,2013-02-25 22:18:00,
2013-02-25 17:23:00,39.6,27.7,30.13,NE,55,3.0,6.0,62,0.00,,---,0.00,VWS V14.01,2013-02-25 22:23:00,
2013-02-25 17:28:00,38.8,27.7,30.13,NE,50,4.0,6.0,64,0.00,,---,0.00,VWS V14.01,2013-02-25 22:28:00,
2013-02-25 17:33:00,38.3,28.0,30.14,NE,51,3.0,6.0,66,0.00,,---,0.00,VWS V14.01,2013-02-25 22:33:00,
2013-02-25 17:38:00,37.9,27.6,30.14,NE,52,3.0,6.0,66,0.00,,---,0.00,VWS V14.01,2013-02-25 22:38:00,
2013-02-25 17:43:00,37.5,27.5,30.14,NE,52,3.0,5.0,67,0.00,,---,0.00,VWS V14.01,2013-02-25 22:43:00,
2013-02-25 17:48:00,37.1,27.9,30.14,NE,52,4.0,4.0,69,0.00,,---,0.00,VWS V14.01,2013-02-25 22:48:00,
2013-02-25 17:53:00,36.9,27.3,30.14,NE,51,4.0,5.0,68,0.00,,---,0.00,VWS V14.01,2013-02-25 22:53:00,
2013-02-25 17:58:00,36.8,27.2,30.13,NE,51,4.0,6.0,68,0.00,,---,0.00,VWS V14.01,2013-02-25 22:58:00,
2013-02-25 18:03:00,36.4,27.2,30.14,NE,51,4.0,6.0,69,0.00,,---,0.00,VWS V14.01,2013-02-25 23:03:00,
2013-02-25 18:08:00,36.0,27.2,30.14,NE,51,3.0,4.0,70,0.00,,---,0.00,VWS V14.01,2013-02-25 23:08:00,
2013-02-25 18:13:00,35.8,26.6,30.14,North,5,5.0,7.0,69,0.00,,---,0.00,VWS V14.01,2013-02-25 23:13:00,
2013-02-25 18:18:00,36.0,26.8,30.14,North,9,3.0,5.0,69,0.00,,---,0.00,VWS V14.01,2013-02-25 23:18:00,
2013-02-25 18:23:00,36.1,26.9,30.14,North,9,4.0,5.0,69,0.00,,---,0.00,VWS V14.01,2013-02-25 23:23:00,
2013-02-25 18:28:00,36.0,26.8,30.14,North,10,5.0,5.0,69,0.00,,---,0.00,VWS V14.01,2013-02-25 23:28:00,
2013-02-25 18:33:00,35.8,26.6,30.14,North,10,3.0,5.0,69,0.00,,---,0.00,VWS V14.01,2013-02-25 23:33:00,
2013-02-25 18:38:00,35.6,26.8,30.14,North,11,4.0,6.0,70,0.00,,---,0.00,VWS V14.01,2013-02-25 23:38:00,
2013-02-25 18:43:00,35.3,26.9,30.14,NNE,20,6.0,7.0,71,0.00,,---,0.00,VWS V14.01,2013-02-25 23:43:00,
2013-02-25 18:48:00,34.9,26.8,30.14,NNE,22,4.0,5.0,72,0.00,,---,0.00,VWS V14.01,2013-02-25 23:48:00,
2013-02-25 18:53:00,34.0,26.3,30.14,NNE,32,4.0,5.0,73,0.00,,---,0.00,VWS V14.01,2013-02-25 23:53:00,
2013-02-25 18:58:00,33.5,26.1,30.14,NNE,32,4.0,5.0,74,0.00,,---,0.00,VWS V14.01,2013-02-25 23:58:00,
2013-02-25 19:03:00,33.0,26.0,30.14,NNE,33,3.0,5.0,75,0.00,,---,0.00,VWS V14.01,2013-02-26 00:03:00,
2013-02-25 19:08:00,32.4,25.7,30.14,NNE,33,4.0,5.0,76,0.00,,---,0.00,VWS V14.01,2013-02-26 00:08:00,
2013-02-25 19:13:00,32.4,26.0,30.14,NNE,33,2.0,4.0,77,0.00,,---,0.00,VWS V14.01,2013-02-26 00:13:00,
2013-02-25 19:18:00,32.8,26.1,30.14,NNE,33,2.0,4.0,76,0.00,,---,0.00,VWS V14.01,2013-02-26 00:18:00,
2013-02-25 19:23:00,32.7,26.0,30.14,NNE,33,3.0,4.0,76,0.00,,---,0.00,VWS V14.01,2013-02-26 00:23:00,
2013-02-25 19:28:00,32.3,25.6,30.14,NNE,33,2.0,4.0,76,0.00,,---,0.00,VWS V14.01,2013-02-26 00:28:00,
2013-02-25 19:33:00,32.2,25.5,30.14,NNE,33,2.0,3.0,76,0.00,,---,0.00,VWS V14.01,2013-02-26 00:33:00,
2013-02-25 19:38:00,32.1,25.4,30.14,NNE,33,4.0,4.0,76,0.00,,---,0.00,VWS V14.01,2013-02-26 00:38:00,
2013-02-25 19:43:00,32.0,25.3,30.14,NNE,33,3.0,4.0,76,0.00,,---,0.00,VWS V14.01,2013-02-26 00:43:00,
2013-02-25 19:48:00,31.9,25.2,30.14,NNE,33,2.0,3.0,76,0.00,,---,0.00,VWS V14.01,2013-02-26 00:48:00,
2013-02-25 19:53:00,32.0,25.3,30.14,NE,34,5.0,5.0,76,0.00,,---,0.00,VWS V14.01,2013-02-26 00:53:00,
2013-02-25 19:58:00,32.0,25.3,30.13,NE,35,5.0,5.0,76,0.00,,---,0.00,VWS V14.01,2013-02-26 00:58:00,
2013-02-25 20:03:00,31.7,25.0,30.13,NE,46,5.0,7.0,76,0.00,,---,0.00,VWS V14.01,2013-02-26 01:03:00,
2013-02-25 20:08:00,31.2,24.8,30.13,NE,53,5.0,6.0,77,0.00,,---,0.00,VWS V14.01,2013-02-26 01:08:00,
2013-02-25 20:13:00,31.5,25.4,30.13,ENE,61,6.0,7.0,78,0.00,,---,0.00,VWS V14.01,2013-02-26 01:13:00,
2013-02-25 20:18:00,32.3,25.9,30.12,ENE,62,5.0,6.0,77,0.00,,---,0.00,VWS V14.01,2013-02-26 01:18:00,
2013-02-25 20:23:00,32.6,25.6,30.12,ENE,71,5.0,12.0,75,0.00,,---,0.00,VWS V14.01,2013-02-26 01:23:00,
2013-02-25 20:28:00,32.9,25.9,30.12,ENE,72,6.0,6.0,75,0.00,,---,0.00,VWS V14.01,2013-02-26 01:28:00,
2013-02-25 20:33:00,33.1,25.7,30.12,East,81,7.0,8.0,74,0.00,,---,0.00,VWS V14.01,2013-02-26 01:33:00,
2013-02-25 20:38:00,33.2,25.8,30.12,East,80,4.0,7.0,74,0.00,,---,0.00,VWS V14.01,2013-02-26 01:38:00,
2013-02-25 20:44:00,33.0,25.6,30.12,ENE,77,5.0,7.0,74,0.00,,---,0.00,VWS V14.01,2013-02-26 01:44:00,
2013-02-25 20:49:00,33.0,25.6,30.11,East,79,5.0,5.0,74,0.00,,---,0.00,VWS V14.01,2013-02-26 01:49:00,
2013-02-25 20:54:00,32.8,25.4,30.11,ENE,62,4.0,8.0,74,0.00,,---,0.00,VWS V14.01,2013-02-26 01:54:00,
2013-02-25 20:59:00,32.8,25.4,30.10,ENE,59,6.0,6.0,74,0.00,,---,0.00,VWS V14.01,2013-02-26 01:59:00,
2013-02-25 21:04:00,32.6,25.2,30.10,NE,54,5.0,7.0,74,0.00,,---,0.00,VWS V14.01,2013-02-26 02:04:00,
2013-02-25 21:09:00,31.7,24.7,30.10,NE,53,5.0,6.0,75,0.00,,---,0.00,VWS V14.01,2013-02-26 02:09:00,
2013-02-25 21:14:00,30.9,24.5,30.10,NE,44,5.0,5.0,77,0.00,,---,0.00,VWS V14.01,2013-02-26 02:14:00,
2013-02-25 21:19:00,30.8,24.8,30.10,NE,37,8.0,8.0,78,0.00,,---,0.00,VWS V14.01,2013-02-26 02:19:00,
2013-02-25 21:24:00,31.2,25.1,30.10,NE,46,6.0,10.0,78,0.00,,---,0.00,VWS V14.01,2013-02-26 02:24:00,
2013-02-25 21:28:00,31.2,25.1,30.11,NE,44,3.0,6.0,78,0.00,,---,0.00,VWS V14.01,2013-02-26 02:28:00,
2013-02-25 21:33:00,30.8,24.5,30.11,NE,44,2.0,5.0,77,0.00,,---,0.00,VWS V14.01,2013-02-26 02:33:00,
2013-02-25 21:38:00,30.4,24.4,30.11,NE,48,4.0,6.0,78,0.00,,---,0.00,VWS V14.01,2013-02-26 02:38:00,
2013-02-25 21:43:00,30.1,24.1,30.11,NE,54,4.0,7.0,78,0.00,,---,0.00,VWS V14.01,2013-02-26 02:43:00,
2013-02-25 21:49:00,29.8,24.1,30.11,NE,54,3.0,5.0,79,0.00,,---,0.00,VWS V14.01,2013-02-26 02:49:00,
2013-02-25 21:54:00,29.6,24.2,30.11,NE,54,3.0,5.0,80,0.00,,---,0.00,VWS V14.01,2013-02-26 02:54:00,
2013-02-25 21:59:00,29.4,24.0,30.11,NE,55,5.0,5.0,80,0.00,,---,0.00,VWS V14.01,2013-02-26 02:59:00,
2013-02-25 22:04:00,29.6,24.5,30.12,ENE,57,4.0,5.0,81,0.00,,---,0.00,VWS V14.01,2013-02-26 03:04:00,
2013-02-25 22:09:00,29.9,24.8,30.12,ENE,67,5.0,7.0,81,0.00,,---,0.00,VWS V14.01,2013-02-26 03:09:00,
2013-02-25 22:14:00,30.7,25.3,30.11,ENE,58,4.0,4.0,80,0.00,,---,0.00,VWS V14.01,2013-02-26 03:14:00,
2013-02-25 22:18:00,31.0,25.3,30.11,NE,53,6.0,7.0,79,0.00,,---,0.00,VWS V14.01,2013-02-26 03:18:00,
2013-02-25 22:23:00,31.0,25.0,30.11,ENE,71,6.0,10.0,78,0.00,,---,0.00,VWS V14.01,2013-02-26 03:23:00,
2013-02-25 22:28:00,31.2,25.1,30.11,ENE,71,7.0,8.0,78,0.00,,---,0.00,VWS V14.01,2013-02-26 03:28:00,
2013-02-25 22:33:00,31.2,25.1,30.11,ENE,74,7.0,7.0,78,0.00,,---,0.00,VWS V14.01,2013-02-26 03:33:00,
2013-02-25 22:38:00,31.2,25.1,30.11,ENE,74,5.0,7.0,78,0.00,,---,0.00,VWS V14.01,2013-02-26 03:38:00,
2013-02-25 22:44:00,31.1,25.0,30.10,ENE,68,6.0,7.0,78,0.00,,---,0.00,VWS V14.01,2013-02-26 03:44:00,
2013-02-25 22:49:00,31.1,25.0,30.10,East,79,4.0,9.0,78,0.00,,---,0.00,VWS V14.01,2013-02-26 03:49:00,
2013-02-25 22:53:00,31.2,25.1,30.10,ENE,71,6.0,8.0,78,0.00,,---,0.00,VWS V14.01,2013-02-26 03:53:00,
2013-02-25 22:58:00,31.2,25.1,30.10,East,92,7.0,8.0,78,0.00,,---,0.00,VWS V14.01,2013-02-26 03:58:00,
2013-02-25 23:03:00,31.2,25.1,30.10,East,87,4.0,8.0,78,0.00,,---,0.00,VWS V14.01,2013-02-26 04:03:00,
2013-02-25 23:08:00,31.2,25.1,30.11,East,89,5.0,8.0,78,0.00,,---,0.00,VWS V14.01,2013-02-26 04:08:00,
2013-02-25 23:13:00,31.1,25.0,30.12,East,92,6.0,8.0,78,0.00,,---,0.00,VWS V14.01,2013-02-26 04:13:00,
2013-02-25 23:18:00,31.0,25.0,30.12,ENE,76,4.0,8.0,78,0.00,,---,0.00,VWS V14.01,2013-02-26 04:18:00,
2013-02-25 23:23:00,31.0,25.0,30.12,East,82,4.0,6.0,78,0.00,,---,0.00,VWS V14.01,2013-02-26 04:23:00,
2013-02-25 23:28:00,30.8,24.8,30.13,East,82,4.0,5.0,78,0.00,,---,0.00,VWS V14.01,2013-02-26 04:28:00,
2013-02-25 23:33:00,30.7,24.7,30.13,ENE,57,3.0,4.0,78,0.00,,---,0.00,VWS V14.01,2013-02-26 04:33:00,
2013-02-25 23:38:00,30.5,24.5,30.13,ENE,57,5.0,5.0,78,0.00,,---,0.00,VWS V14.01,2013-02-26 04:38:00,
2013-02-25 23:43:00,29.9,23.9,30.13,ENE,57,4.0,6.0,78,0.00,,---,0.00,VWS V14.01,2013-02-26 04:43:00,
2013-02-25 23:48:00,29.2,23.5,30.12,ENE,57,4.0,5.0,79,0.00,,---,0.00,VWS V14.01,2013-02-26 04:48:00,
2013-02-25 23:53:00,28.9,23.8,30.12,ENE,57,4.0,5.0,81,0.00,,---,0.00,VWS V14.01,2013-02-26 04:53:00,
2013-02-25 23:58:00,28.8,23.7,30.12,ENE,57,4.0,5.0,81,0.00,,---,0.00,VWS V14.01,2013-02-26 04:58:00,